createdAt,value
2019-06-18T00:00:38.320Z,1015.05
2019-06-18T00:01:20.744Z,1015.06
2019-06-18T00:02:00.926Z,1015.03
2019-06-18T00:02:40.259Z,1015.04
2019-06-18T00:03:20.827Z,1015.06
2019-06-18T00:04:01.276Z,1015.05
2019-06-18T00:04:41.869Z,1015.02
2019-06-18T00:05:22.481Z,1015.04
2019-06-18T00:06:03.040Z,1015
2019-06-18T00:06:43.611Z,1014.99
2019-06-18T00:07:24.221Z,1015.02
2019-06-18T00:08:04.799Z,1014.99
2019-06-18T00:08:45.381Z,1015.01
2019-06-18T00:09:25.942Z,1015.01
2019-06-18T00:10:06.525Z,1015
2019-06-18T00:10:47.135Z,1015.04
2019-06-18T00:11:30.171Z,1015.03
2019-06-18T00:12:10.598Z,1015.02
2019-06-18T00:12:50.380Z,1015.04
2019-06-18T00:13:31.004Z,1015.02
2019-06-18T00:14:10.966Z,1015.03
2019-06-18T00:14:50.583Z,1015.04
2019-06-18T00:15:43.793Z,1015.03
2019-06-18T00:16:11.878Z,1015.02
2019-06-18T00:16:52.343Z,1015
2019-06-18T00:17:32.897Z,1015
2019-06-18T00:18:13.506Z,1014.97
2019-06-18T00:18:54.092Z,1014.99
2019-06-18T00:19:34.749Z,1014.98
2019-06-18T00:20:15.316Z,1014.96
2019-06-18T00:20:55.893Z,1014.94
2019-06-18T00:21:36.527Z,1014.98
2019-06-18T00:22:17.136Z,1014.96
2019-06-18T00:22:57.966Z,1014.96
2019-06-18T00:23:40.571Z,1014.95
2019-06-18T00:24:20.590Z,1014.94
2019-06-18T00:25:01.244Z,1014.9
2019-06-18T00:25:40.649Z,1014.96
2019-06-18T00:26:21.250Z,1014.94
2019-06-18T00:27:01.494Z,1014.92
2019-06-18T00:27:42.032Z,1014.92
2019-06-18T00:28:22.668Z,1014.92
2019-06-18T00:29:03.190Z,1014.93
2019-06-18T00:29:43.779Z,1014.91
2019-06-18T00:30:24.361Z,1014.88
2019-06-18T00:31:04.935Z,1014.95
2019-06-18T00:31:45.519Z,1014.92
2019-06-18T00:32:26.119Z,1014.89
2019-06-18T00:33:06.747Z,1014.91
2019-06-18T00:33:47.260Z,1014.92
2019-06-18T00:34:27.847Z,1014.9
2019-06-18T00:35:10.756Z,1014.94
2019-06-18T00:35:51.330Z,1014.92
2019-06-18T00:36:31.035Z,1014.92
2019-06-18T00:37:10.724Z,1014.88
2019-06-18T00:37:51.267Z,1014.86
2019-06-18T00:38:31.397Z,1014.9
2019-06-18T00:39:11.971Z,1014.86
2019-06-18T00:39:52.543Z,1014.89
2019-06-18T00:40:33.258Z,1014.85
2019-06-18T00:41:13.796Z,1014.86
2019-06-18T00:41:54.375Z,1014.82
2019-06-18T00:42:34.976Z,1014.85
2019-06-18T00:43:18.013Z,1014.83
2019-06-18T00:43:56.774Z,1014.87
2019-06-18T00:44:37.262Z,1014.87
2019-06-18T00:45:17.332Z,1014.82
2019-06-18T00:46:03.379Z,1014.85
2019-06-18T00:46:38.488Z,1014.84
2019-06-18T00:47:19.079Z,1014.86
2019-06-18T00:47:59.639Z,1014.81
2019-06-18T00:48:40.227Z,1014.81
2019-06-18T00:49:20.803Z,1014.85
2019-06-18T00:50:01.397Z,1014.86
2019-06-18T00:50:41.983Z,1014.83
2019-06-18T00:51:22.559Z,1014.83
2019-06-18T00:52:03.140Z,1014.78
2019-06-18T00:52:43.851Z,1014.82
2019-06-18T00:53:26.753Z,1014.83
2019-06-18T00:54:06.675Z,1014.79
2019-06-18T00:54:48.105Z,1014.82
2019-06-18T00:55:27.575Z,1014.8
2019-06-18T00:56:07.322Z,1014.81
2019-06-18T00:56:47.351Z,1014.81
2019-06-18T00:57:27.960Z,1014.8
2019-06-18T00:58:08.534Z,1014.75
2019-06-18T00:58:49.147Z,1014.8
2019-06-18T00:59:29.768Z,1014.82
2019-06-18T01:00:10.353Z,1014.79
2019-06-18T01:00:50.996Z,1014.85
2019-06-18T01:01:31.624Z,1014.8
2019-06-18T01:02:12.162Z,1014.81
2019-06-18T01:02:52.736Z,1014.78
2019-06-18T01:03:33.340Z,1014.79
2019-06-18T01:04:13.908Z,1014.77
2019-06-18T01:05:01.202Z,1014.77
2019-06-18T01:05:37.205Z,1014.75
2019-06-18T01:06:17.403Z,1014.77
2019-06-18T01:06:57.979Z,1014.73
2019-06-18T01:07:38.578Z,1014.79
2019-06-18T01:08:19.112Z,1014.78
2019-06-18T01:08:59.702Z,1014.78
2019-06-18T01:09:40.293Z,1014.76
2019-06-18T01:10:20.880Z,1014.77
2019-06-18T01:11:01.444Z,1014.78
2019-06-18T01:11:42.003Z,1014.75
2019-06-18T01:12:22.566Z,1014.8
2019-06-18T01:13:03.132Z,1014.77
2019-06-18T01:13:43.699Z,1014.76
2019-06-18T01:14:24.247Z,1014.76
2019-06-18T01:15:06.815Z,1014.78
2019-06-18T01:15:46.850Z,1014.75
2019-06-18T01:16:27.968Z,1014.75
2019-06-18T01:17:06.889Z,1014.74
2019-06-18T01:17:47.613Z,1014.73
2019-06-18T01:18:27.750Z,1014.75
2019-06-18T01:19:08.353Z,1014.75
2019-06-18T01:19:48.934Z,1014.72
2019-06-18T01:20:29.521Z,1014.7
2019-06-18T01:21:10.097Z,1014.7
2019-06-18T01:21:50.660Z,1014.72
2019-06-18T01:22:31.305Z,1014.71
2019-06-18T01:23:11.918Z,1014.72
2019-06-18T01:24:00.422Z,1014.71
2019-06-18T01:24:33.079Z,1014.72
2019-06-18T01:25:13.671Z,1014.68
2019-06-18T01:25:54.224Z,1014.7
2019-06-18T01:26:34.792Z,1014.67
2019-06-18T01:27:15.344Z,1014.72
2019-06-18T01:27:55.921Z,1014.69
2019-06-18T01:28:36.667Z,1014.67
2019-06-18T01:29:17.259Z,1014.67
2019-06-18T01:29:57.825Z,1014.64
2019-06-18T01:30:38.443Z,1014.67
2019-06-18T01:31:19.017Z,1014.65
2019-06-18T01:31:59.570Z,1014.66
2019-06-18T01:32:40.155Z,1014.62
2019-06-18T01:33:22.522Z,1014.62
2019-06-18T01:34:03.077Z,1014.64
2019-06-18T01:34:42.133Z,1014.66
2019-06-18T01:35:23.046Z,1014.62
2019-06-18T01:36:03.262Z,1014.59
2019-06-18T01:36:43.616Z,1014.63
2019-06-18T01:37:24.204Z,1014.61
2019-06-18T01:38:04.774Z,1014.57
2019-06-18T01:38:45.332Z,1014.61
2019-06-18T01:39:25.917Z,1014.62
2019-06-18T01:40:06.494Z,1014.61
2019-06-18T01:40:47.048Z,1014.63
2019-06-18T01:41:27.630Z,1014.59
2019-06-18T01:42:08.191Z,1014.58
2019-06-18T01:42:48.776Z,1014.62
2019-06-18T01:43:29.338Z,1014.58
2019-06-18T01:44:09.944Z,1014.56
2019-06-18T01:44:52.795Z,1014.53
2019-06-18T01:45:33.271Z,1014.52
2019-06-18T01:46:12.937Z,1014.55
2019-06-18T01:46:54.504Z,1014.53
2019-06-18T01:47:32.807Z,1014.53
2019-06-18T01:48:13.378Z,1014.52
2019-06-18T01:48:53.969Z,1014.49
2019-06-18T01:49:34.560Z,1014.52
2019-06-18T01:50:15.154Z,1014.46
2019-06-18T01:50:55.729Z,1014.48
2019-06-18T01:51:36.305Z,1014.47
2019-06-18T01:52:16.894Z,1014.45
2019-06-18T01:52:57.485Z,1014.46
2019-06-18T01:53:38.057Z,1014.47
2019-06-18T01:54:18.622Z,1014.46
2019-06-18T01:54:59.206Z,1014.45
2019-06-18T01:55:42.072Z,1014.42
2019-06-18T01:56:22.562Z,1014.46
2019-06-18T01:57:02.409Z,1014.46
2019-06-18T01:57:43.700Z,1014.43
2019-06-18T01:58:22.457Z,1014.4
2019-06-18T01:59:02.745Z,1014.4
2019-06-18T01:59:43.253Z,1014.44
2019-06-18T02:00:23.833Z,1014.45
2019-06-18T02:01:04.437Z,1014.4
2019-06-18T02:01:45.015Z,1014.47
2019-06-18T02:02:25.616Z,1014.46
2019-06-18T02:03:06.228Z,1014.46
2019-06-18T02:03:46.793Z,1014.47
2019-06-18T02:04:27.376Z,1014.49
2019-06-18T02:05:07.942Z,1014.48
2019-06-18T02:05:48.523Z,1014.49
2019-06-18T02:06:29.075Z,1014.46
2019-06-18T02:07:09.669Z,1014.49
2019-06-18T02:07:52.987Z,1014.44
2019-06-18T02:08:32.954Z,1014.47
2019-06-18T02:09:12.810Z,1014.46
2019-06-18T02:09:52.769Z,1014.47
2019-06-18T02:10:33.235Z,1014.46
2019-06-18T02:11:13.204Z,1014.46
2019-06-18T02:11:53.793Z,1014.42
2019-06-18T02:12:34.349Z,1014.45
2019-06-18T02:13:14.946Z,1014.45
2019-06-18T02:13:55.532Z,1014.46
2019-06-18T02:14:36.131Z,1014.45
2019-06-18T02:15:16.734Z,1014.44
2019-06-18T02:15:57.294Z,1014.47
2019-06-18T02:16:50.680Z,1014.5
2019-06-18T02:17:18.487Z,1014.52
2019-06-18T02:17:59.082Z,1014.51
2019-06-18T02:18:39.656Z,1014.52
2019-06-18T02:19:22.543Z,1014.54
2019-06-18T02:20:02.738Z,1014.56
2019-06-18T02:20:45.813Z,1014.5
2019-06-18T02:21:22.895Z,1014.56
2019-06-18T02:22:06.970Z,1014.54
2019-06-18T02:22:43.395Z,1014.56
2019-06-18T02:23:23.751Z,1014.6
2019-06-18T02:24:04.327Z,1014.57
2019-06-18T02:24:44.917Z,1014.61
2019-06-18T02:25:25.478Z,1014.67
2019-06-18T02:26:06.039Z,1014.59
2019-06-18T02:26:46.637Z,1014.59
2019-06-18T02:27:27.238Z,1014.58
2019-06-18T02:28:07.780Z,1014.59
2019-06-18T02:28:48.391Z,1014.56
2019-06-18T02:29:28.958Z,1014.59
2019-06-18T02:30:12.908Z,1014.57
2019-06-18T02:30:50.120Z,1014.58
2019-06-18T02:31:34.582Z,1014.61
2019-06-18T02:32:14.162Z,1014.6
2019-06-18T02:32:54.693Z,1014.6
2019-06-18T02:33:34.025Z,1014.61
2019-06-18T02:34:13.019Z,1014.56
2019-06-18T02:34:53.801Z,1014.61
2019-06-18T02:35:34.179Z,1014.55
2019-06-18T02:36:14.766Z,1014.57
2019-06-18T02:36:55.365Z,1014.59
2019-06-18T02:37:35.946Z,1014.58
2019-06-18T02:38:16.533Z,1014.57
2019-06-18T02:38:57.151Z,1014.61
2019-06-18T02:39:37.716Z,1014.58
2019-06-18T02:40:18.292Z,1014.63
2019-06-18T02:40:58.861Z,1014.61
2019-06-18T02:41:39.422Z,1014.64
2019-06-18T02:42:20.022Z,1014.58
2019-06-18T02:43:03.318Z,1014.59
2019-06-18T02:43:42.627Z,1014.61
2019-06-18T02:44:23.473Z,1014.6
2019-06-18T02:45:03.647Z,1014.58
2019-06-18T02:45:42.912Z,1014.58
2019-06-18T02:46:23.531Z,1014.59
2019-06-18T02:47:11.538Z,1014.59
2019-06-18T02:47:44.706Z,1014.6
2019-06-18T02:48:25.359Z,1014.59
2019-06-18T02:49:05.916Z,1014.61
2019-06-18T02:49:46.495Z,1014.58
2019-06-18T02:50:27.054Z,1014.58
2019-06-18T02:51:07.648Z,1014.57
2019-06-18T02:51:48.237Z,1014.53
2019-06-18T02:52:28.839Z,1014.59
2019-06-18T02:53:09.425Z,1014.55
2019-06-18T02:53:50.013Z,1014.57
2019-06-18T02:54:33.007Z,1014.61
2019-06-18T02:55:13.206Z,1014.62
2019-06-18T02:55:52.789Z,1014.58
2019-06-18T02:56:33.174Z,1014.6
2019-06-18T02:57:13.412Z,1014.64
2019-06-18T02:57:53.626Z,1014.58
2019-06-18T02:58:34.192Z,1014.57
2019-06-18T02:59:14.747Z,1014.63
2019-06-18T02:59:55.374Z,1014.64
2019-06-18T03:00:35.965Z,1014.62
2019-06-18T03:01:16.551Z,1014.63
2019-06-18T03:01:57.125Z,1014.63
2019-06-18T03:02:37.729Z,1014.6
2019-06-18T03:03:18.306Z,1014.59
2019-06-18T03:03:58.909Z,1014.59
2019-06-18T03:04:39.515Z,1014.59
2019-06-18T03:05:22.244Z,1014.6
2019-06-18T03:06:02.356Z,1014.6
2019-06-18T03:06:42.783Z,1014.61
2019-06-18T03:07:22.580Z,1014.55
2019-06-18T03:08:02.777Z,1014.56
2019-06-18T03:08:43.097Z,1014.59
2019-06-18T03:09:23.677Z,1014.57
2019-06-18T03:10:04.281Z,1014.58
2019-06-18T03:10:44.848Z,1014.57
2019-06-18T03:11:25.469Z,1014.58
2019-06-18T03:12:06.068Z,1014.57
2019-06-18T03:12:46.666Z,1014.6
2019-06-18T03:13:27.274Z,1014.55
2019-06-18T03:14:07.880Z,1014.55
2019-06-18T03:14:48.464Z,1014.55
2019-06-18T03:15:29.016Z,1014.59
2019-06-18T03:16:09.631Z,1014.59
2019-06-18T03:16:52.451Z,1014.56
2019-06-18T03:17:33.209Z,1014.56
2019-06-18T03:18:13.168Z,1014.53
2019-06-18T03:18:53.186Z,1014.49
2019-06-18T03:19:32.621Z,1014.52
2019-06-18T03:20:13.188Z,1014.56
2019-06-18T03:20:53.727Z,1014.54
2019-06-18T03:21:34.333Z,1014.56
2019-06-18T03:22:14.934Z,1014.55
2019-06-18T03:22:55.539Z,1014.56
2019-06-18T03:23:36.089Z,1014.53
2019-06-18T03:24:16.661Z,1014.6
2019-06-18T03:24:57.279Z,1014.55
2019-06-18T03:25:37.848Z,1014.53
2019-06-18T03:26:18.414Z,1014.54
2019-06-18T03:26:58.984Z,1014.52
2019-06-18T03:27:42.115Z,1014.5
2019-06-18T03:28:21.907Z,1014.5
2019-06-18T03:29:02.479Z,1014.48
2019-06-18T03:29:43.174Z,1014.47
2019-06-18T03:30:23.916Z,1014.52
2019-06-18T03:31:04.465Z,1014.52
2019-06-18T03:31:45.949Z,1014.48
2019-06-18T03:32:25.253Z,1014.45
2019-06-18T03:33:05.035Z,1014.48
2019-06-18T03:33:47.516Z,1014.42
2019-06-18T03:34:25.593Z,1014.47
2019-06-18T03:35:06.110Z,1014.49
2019-06-18T03:35:46.726Z,1014.48
2019-06-18T03:36:27.319Z,1014.5
2019-06-18T03:37:07.882Z,1014.5
2019-06-18T03:37:48.496Z,1014.48
2019-06-18T03:38:29.078Z,1014.46
2019-06-18T03:39:09.675Z,1014.49
2019-06-18T03:39:52.841Z,1014.52
2019-06-18T03:40:32.796Z,1014.47
2019-06-18T03:41:13.154Z,1014.44
2019-06-18T03:41:53.052Z,1014.43
2019-06-18T03:42:33.277Z,1014.49
2019-06-18T03:43:13.336Z,1014.46
2019-06-18T03:43:53.923Z,1014.47
2019-06-18T03:44:34.498Z,1014.47
2019-06-18T03:45:15.108Z,1014.44
2019-06-18T03:45:55.708Z,1014.43
2019-06-18T03:46:36.305Z,1014.45
2019-06-18T03:47:16.963Z,1014.43
2019-06-18T03:47:57.497Z,1014.43
2019-06-18T03:48:38.054Z,1014.42
2019-06-18T03:49:18.626Z,1014.39
2019-06-18T03:49:59.251Z,1014.41
2019-06-18T03:50:39.877Z,1014.42
2019-06-18T03:51:23.127Z,1014.41
2019-06-18T03:52:03.170Z,1014.37
2019-06-18T03:52:42.440Z,1014.36
2019-06-18T03:53:23.342Z,1014.38
2019-06-18T03:54:03.271Z,1014.41
2019-06-18T03:54:43.496Z,1014.4
2019-06-18T03:55:24.120Z,1014.4
2019-06-18T03:56:04.707Z,1014.39
2019-06-18T03:56:45.263Z,1014.36
2019-06-18T03:57:25.869Z,1014.31
2019-06-18T03:58:06.412Z,1014.36
2019-06-18T03:58:47.018Z,1014.41
2019-06-18T03:59:27.594Z,1014.39
2019-06-18T04:00:08.189Z,1014.35
2019-06-18T04:00:48.751Z,1014.36
2019-06-18T04:01:29.367Z,1014.36
2019-06-18T04:02:09.939Z,1014.32
2019-06-18T04:02:52.647Z,1014.33
2019-06-18T04:03:33.148Z,1014.34
2019-06-18T04:04:12.981Z,1014.31
2019-06-18T04:04:52.965Z,1014.31
2019-06-18T04:05:33.274Z,1014.29
2019-06-18T04:06:13.428Z,1014.31
2019-06-18T04:06:54.023Z,1014.29
2019-06-18T04:07:34.542Z,1014.29
2019-06-18T04:08:15.107Z,1014.31
2019-06-18T04:08:55.697Z,1014.3
2019-06-18T04:09:36.253Z,1014.3
2019-06-18T04:10:16.826Z,1014.29
2019-06-18T04:10:57.402Z,1014.34
2019-06-18T04:11:37.970Z,1014.29
2019-06-18T04:12:18.640Z,1014.33
2019-06-18T04:12:59.307Z,1014.31
2019-06-18T04:13:39.876Z,1014.32
2019-06-18T04:14:21.268Z,1014.32
2019-06-18T04:15:03.251Z,1014.29
2019-06-18T04:15:42.273Z,1014.33
2019-06-18T04:16:22.461Z,1014.3
2019-06-18T04:17:03.154Z,1014.29
2019-06-18T04:17:56.541Z,1014.32
2019-06-18T04:18:24.440Z,1014.29
2019-06-18T04:19:05.811Z,1014.28
2019-06-18T04:19:46.968Z,1014.29
2019-06-18T04:20:29.452Z,1014.29
2019-06-18T04:21:08.430Z,1014.28
2019-06-18T04:21:49.024Z,1014.3
2019-06-18T04:22:29.604Z,1014.32
2019-06-18T04:23:13.019Z,1014.32
2019-06-18T04:23:52.456Z,1014.35
2019-06-18T04:24:33.352Z,1014.33
2019-06-18T04:25:13.479Z,1014.35
2019-06-18T04:25:54.441Z,1014.32
2019-06-18T04:26:35.237Z,1014.37
2019-06-18T04:27:15.813Z,1014.34
2019-06-18T04:27:56.597Z,1014.34
2019-06-18T04:28:37.372Z,1014.34
2019-06-18T04:29:18.257Z,1014.35
2019-06-18T04:29:59.024Z,1014.35
2019-06-18T04:30:39.723Z,1014.33
2019-06-18T04:31:22.609Z,1014.38
2019-06-18T04:32:02.675Z,1014.34
2019-06-18T04:32:43.140Z,1014.37
2019-06-18T04:33:22.538Z,1014.32
2019-06-18T04:34:04.300Z,1014.31
2019-06-18T04:34:45.576Z,1014.34
2019-06-18T04:35:26.537Z,1014.32
2019-06-18T04:36:07.214Z,1014.36
2019-06-18T04:36:48.346Z,1014.36
2019-06-18T04:37:29.265Z,1014.36
2019-06-18T04:38:12.390Z,1014.38
2019-06-18T04:38:52.292Z,1014.41
2019-06-18T04:39:33.489Z,1014.38
2019-06-18T04:40:14.374Z,1014.36
2019-06-18T04:40:55.304Z,1014.43
2019-06-18T04:41:35.892Z,1014.41
2019-06-18T04:42:16.557Z,1014.4
2019-06-18T04:42:57.125Z,1014.41
2019-06-18T04:43:37.883Z,1014.45
2019-06-18T04:44:18.903Z,1014.44
2019-06-18T04:44:59.700Z,1014.46
2019-06-18T04:45:43.355Z,1014.44
2019-06-18T04:46:23.413Z,1014.41
2019-06-18T04:47:03.106Z,1014.44
2019-06-18T04:47:43.495Z,1014.42
2019-06-18T04:48:27.671Z,1014.41
2019-06-18T04:49:06.990Z,1014.44
2019-06-18T04:52:07.014Z,1014.45
2019-06-18T04:52:49.975Z,1014.45
2019-06-18T04:53:33.540Z,1014.48
2019-06-18T04:54:14.111Z,1014.46
2019-06-18T04:54:55.112Z,1014.49
2019-06-18T04:55:36.656Z,1014.51
2019-06-18T04:56:17.672Z,1014.48
2019-06-18T04:56:58.244Z,1014.48
2019-06-18T04:57:38.910Z,1014.51
2019-06-18T04:58:19.483Z,1014.47
2019-06-18T04:59:02.978Z,1014.51
2019-06-18T04:59:42.621Z,1014.51
2019-06-18T05:00:22.483Z,1014.49
2019-06-18T05:01:03.425Z,1014.5
2019-06-18T05:01:42.967Z,1014.48
2019-06-18T05:02:23.077Z,1014.53
2019-06-18T05:03:03.655Z,1014.57
2019-06-18T05:03:44.319Z,1014.59
2019-06-18T05:04:25.909Z,1014.56
2019-06-18T05:05:07.881Z,1014.55
2019-06-18T05:05:49.585Z,1014.57
2019-06-18T05:06:33.030Z,1014.55
2019-06-18T05:07:13.318Z,1014.57
2019-06-18T05:07:53.021Z,1014.56
2019-06-18T05:08:33.252Z,1014.6
2019-06-18T05:09:14.015Z,1014.6
2019-06-18T05:09:54.251Z,1014.56
2019-06-18T05:10:34.834Z,1014.53
2019-06-18T05:11:15.437Z,1014.51
2019-06-18T05:11:56.265Z,1014.53
2019-06-18T05:12:37.157Z,1014.52
2019-06-18T05:15:52.398Z,1014.22
2019-06-18T05:16:32.406Z,1014.2
2019-06-18T05:17:13.468Z,1014.22
2019-06-18T05:17:53.204Z,1014.23
2019-06-18T05:18:39.749Z,1014.24
2019-06-18T05:19:14.081Z,1014.23
2019-06-18T05:19:54.718Z,1014.28
2019-06-18T05:20:35.348Z,1014.31
2019-06-18T05:21:16.011Z,1014.3
2019-06-18T05:21:56.559Z,1014.34
2019-06-18T05:22:37.185Z,1014.34
2019-06-18T05:23:17.768Z,1014.44
2019-06-18T05:23:58.329Z,1014.37
2019-06-18T05:24:38.882Z,1014.44
2019-06-18T05:25:19.463Z,1014.44
2019-06-18T05:26:00.045Z,1014.48
2019-06-18T05:26:42.880Z,1014.54
2019-06-18T05:27:23.091Z,1014.53
2019-06-18T05:28:03.239Z,1014.58
2019-06-18T05:28:43.360Z,1014.57
2019-06-18T05:29:23.395Z,1014.68
2019-06-18T05:30:04.135Z,1014.66
2019-06-18T05:30:44.225Z,1014.64
2019-06-18T05:31:24.800Z,1014.69
2019-06-18T05:32:05.400Z,1014.7
2019-06-18T05:32:45.970Z,1014.7
2019-06-18T05:33:26.564Z,1014.76
2019-06-18T05:34:07.154Z,1014.8
2019-06-18T05:34:47.746Z,1014.83
2019-06-18T05:35:28.453Z,1014.86
2019-06-18T05:36:09.109Z,1014.98
2019-06-18T05:36:52.835Z,1014.96
2019-06-18T05:37:32.790Z,1014.99
2019-06-18T05:38:13.199Z,1015.05
2019-06-18T05:38:52.945Z,1015.11
2019-06-18T05:39:33.182Z,1015.15
2019-06-18T05:40:13.493Z,1015.26
2019-06-18T05:40:54.080Z,1015.3
2019-06-18T05:41:34.665Z,1015.34
2019-06-18T05:42:15.265Z,1015.44
2019-06-18T05:42:55.900Z,1015.52
2019-06-18T05:43:36.486Z,1015.67
2019-06-18T05:46:35.439Z,1015.98
2019-06-18T05:47:15.975Z,1016
2019-06-18T05:47:56.584Z,1016.03
2019-06-18T05:48:50.391Z,1016.1
2019-06-18T05:49:17.794Z,1016.16
2019-06-18T05:49:58.454Z,1016.23
2019-06-18T05:50:39.148Z,1016.28
2019-06-18T05:51:19.789Z,1016.31
2019-06-18T05:52:00.376Z,1016.35
2019-06-18T05:52:42.478Z,1016.37
2019-06-18T05:53:22.488Z,1016.41
2019-06-18T05:55:38.027Z,1016.46
2019-06-18T05:56:15.503Z,1016.5
2019-06-18T05:56:56.073Z,1016.47
2019-06-18T05:57:36.643Z,1016.35
2019-06-18T05:58:17.211Z,1016.13
2019-06-18T05:58:57.825Z,1016.12
2019-06-18T05:59:38.471Z,1016.06
2019-06-18T06:00:18.980Z,1016.02
2019-06-18T06:00:59.554Z,1015.91
2019-06-18T06:01:40.155Z,1015.8
2019-06-18T06:02:22.547Z,1015.73
2019-06-18T06:03:02.602Z,1015.79
2019-06-18T06:03:42.350Z,1015.76
2019-06-18T06:04:23.206Z,1015.69
2019-06-18T06:05:03.271Z,1015.58
2019-06-18T06:05:43.543Z,1015.49
2019-06-18T06:06:24.101Z,1015.52
2019-06-18T06:07:04.734Z,1015.54
2019-06-18T06:07:45.267Z,1015.54
2019-06-18T06:08:25.835Z,1015.52
2019-06-18T06:09:06.408Z,1015.44
2019-06-18T06:09:46.978Z,1015.42
2019-06-18T06:10:27.533Z,1015.41
2019-06-18T06:11:08.106Z,1015.34
2019-06-18T06:11:48.673Z,1015.33
2019-06-18T06:12:29.258Z,1015.32
2019-06-18T06:13:09.842Z,1015.29
2019-06-18T06:13:52.691Z,1015.31
2019-06-18T06:14:33.160Z,1015.32
2019-06-18T06:15:13.150Z,1015.33
2019-06-18T06:15:52.981Z,1015.33
2019-06-18T06:16:33.604Z,1015.33
2019-06-18T06:17:13.631Z,1015.31
2019-06-18T06:17:53.868Z,1015.33
2019-06-18T06:18:34.435Z,1015.35
2019-06-18T06:19:18.011Z,1015.36
2019-06-18T06:19:55.598Z,1015.33
2019-06-18T06:20:36.160Z,1015.36
2019-06-18T06:21:16.799Z,1015.38
2019-06-18T06:21:57.330Z,1015.48
2019-06-18T06:22:38.501Z,1015.5
2019-06-18T06:23:19.088Z,1015.52
2019-06-18T06:23:59.642Z,1015.45
2019-06-18T06:24:42.851Z,1015.4
2019-06-18T06:25:24.010Z,1015.38
2019-06-18T06:26:03.560Z,1015.38
2019-06-18T06:26:43.099Z,1015.38
2019-06-18T06:27:23.404Z,1015.41
2019-06-18T06:28:03.247Z,1015.38
2019-06-18T06:28:43.679Z,1015.4
2019-06-18T06:29:24.253Z,1015.4
2019-06-18T06:30:04.825Z,1015.38
2019-06-18T06:30:45.417Z,1015.4
2019-06-18T06:31:25.985Z,1015.39
2019-06-18T06:32:06.559Z,1015.37
2019-06-18T06:32:47.107Z,1015.3
2019-06-18T06:33:27.728Z,1015.3
2019-06-18T06:34:09.554Z,1015.25
2019-06-18T06:34:48.879Z,1015.28
2019-06-18T06:35:29.452Z,1015.34
2019-06-18T06:36:12.225Z,1015.36
2019-06-18T06:36:52.324Z,1015.38
2019-06-18T06:37:32.864Z,1015.39
2019-06-18T06:38:12.656Z,1015.41
2019-06-18T06:38:53.330Z,1015.42
2019-06-18T06:39:34.182Z,1015.45
2019-06-18T06:40:13.519Z,1015.43
2019-06-18T06:40:54.108Z,1015.33
2019-06-18T06:41:34.766Z,1015.32
2019-06-18T06:42:15.270Z,1015.2
2019-06-18T06:42:55.833Z,1015.1
2019-06-18T06:43:36.409Z,1015.03
2019-06-18T06:44:16.993Z,1014.98
2019-06-18T06:44:57.567Z,1014.96
2019-06-18T06:45:38.127Z,1014.9
2019-06-18T06:46:18.709Z,1014.86
2019-06-18T06:46:59.284Z,1014.86
2019-06-18T06:47:39.858Z,1014.89
2019-06-18T06:48:22.818Z,1014.87
2019-06-18T06:49:02.854Z,1014.85
2019-06-18T06:49:43.238Z,1014.85
2019-06-18T06:50:22.636Z,1014.82
2019-06-18T06:51:03.132Z,1014.82
2019-06-18T06:51:43.433Z,1014.86
2019-06-18T06:52:23.909Z,1014.88
2019-06-18T06:53:04.508Z,1014.92
2019-06-18T06:53:45.048Z,1015
2019-06-18T06:54:25.832Z,1015.09
2019-06-18T06:55:08.148Z,1015.1
2019-06-18T06:55:48.796Z,1015
2019-06-18T06:56:33.022Z,1014.94
2019-06-18T06:59:46.398Z,1014.76
2019-06-18T07:00:28.744Z,1014.74
2019-06-18T07:01:15.389Z,1014.71
2019-06-18T07:01:56.509Z,1014.7
2019-06-18T07:02:37.334Z,1014.71
2019-06-18T07:03:17.900Z,1014.68
2019-06-18T07:03:58.472Z,1014.73
2019-06-18T07:04:39.107Z,1014.72
2019-06-18T07:05:19.687Z,1014.74
2019-06-18T07:06:02.955Z,1014.74
2019-06-18T07:06:43.171Z,1014.73
2019-06-18T07:07:23.934Z,1014.78
2019-06-18T07:08:02.854Z,1014.77
2019-06-18T07:08:43.177Z,1014.78
2019-06-18T07:09:23.169Z,1014.73
2019-06-18T07:10:07.194Z,1014.75
2019-06-18T07:10:44.347Z,1014.77
2019-06-18T07:11:24.891Z,1014.76
2019-06-18T07:12:05.464Z,1014.78
2019-06-18T07:12:46.047Z,1014.79
2019-06-18T07:13:26.624Z,1014.78
2019-06-18T07:14:07.206Z,1014.78
2019-06-18T07:14:47.770Z,1014.74
2019-06-18T07:15:28.338Z,1014.73
2019-06-18T07:16:08.931Z,1014.67
2019-06-18T07:16:49.511Z,1014.69
2019-06-18T07:17:30.077Z,1014.72
2019-06-18T07:18:12.684Z,1014.72
2019-06-18T07:18:53.239Z,1014.7
2019-06-18T07:19:40.476Z,1014.72
2019-06-18T07:20:12.926Z,1014.74
2019-06-18T07:20:53.303Z,1014.77
2019-06-18T07:21:33.535Z,1014.83
2019-06-18T07:22:14.122Z,1014.99
2019-06-18T07:22:55.132Z,1015.18
2019-06-18T07:23:35.702Z,1015.25
2019-06-18T07:24:16.296Z,1015.3
2019-06-18T07:24:56.860Z,1015.2
2019-06-18T07:25:37.438Z,1015.13
2019-06-18T07:26:18.026Z,1015
2019-06-18T07:26:58.613Z,1014.88
2019-06-18T07:27:39.165Z,1014.75
2019-06-18T07:28:19.737Z,1014.66
2019-06-18T07:29:02.925Z,1014.67
2019-06-18T07:29:43.696Z,1014.62
2019-06-18T07:30:23.459Z,1014.58
2019-06-18T07:31:02.899Z,1014.64
2019-06-18T07:31:43.364Z,1014.65
2019-06-18T07:32:23.219Z,1014.6
2019-06-18T07:33:04.053Z,1014.62
2019-06-18T07:33:46.350Z,1014.63
2019-06-18T07:34:25.848Z,1014.63
2019-06-18T07:35:06.722Z,1014.61
2019-06-18T07:35:47.616Z,1014.58
2019-06-18T07:36:29.407Z,1014.57
2019-06-18T07:37:12.745Z,1014.54
2019-06-18T07:37:53.313Z,1014.58
2019-06-18T07:38:33.003Z,1014.58
2019-06-18T07:39:14.710Z,1014.56
2019-06-18T07:39:55.597Z,1014.6
2019-06-18T07:40:36.180Z,1014.58
2019-06-18T07:41:18.235Z,1014.6
2019-06-18T07:44:32.907Z,1014.59
2019-06-18T07:45:12.923Z,1014.57
2019-06-18T07:45:53.489Z,1014.54
2019-06-18T07:46:34.064Z,1014.56
2019-06-18T07:47:14.655Z,1014.54
2019-06-18T07:47:55.205Z,1014.55
2019-06-18T07:48:35.793Z,1014.53
2019-06-18T07:49:16.349Z,1014.58
2019-06-18T07:50:10.068Z,1014.53
2019-06-18T07:50:37.847Z,1014.58
2019-06-18T07:51:18.403Z,1014.55
2019-06-18T07:51:59.357Z,1014.54
2019-06-18T07:52:39.916Z,1014.49
2019-06-18T07:53:22.270Z,1014.57
2019-06-18T07:54:03.778Z,1014.52
2019-06-18T07:54:42.494Z,1014.53
2019-06-18T07:55:22.930Z,1014.5
2019-06-18T07:56:03.245Z,1014.46
2019-06-18T07:56:43.946Z,1014.5
2019-06-18T07:57:24.518Z,1014.49
2019-06-18T07:58:05.143Z,1014.5
2019-06-18T07:58:45.716Z,1014.45
2019-06-18T07:59:26.320Z,1014.42
2019-06-18T08:00:06.906Z,1014.42
2019-06-18T08:00:47.486Z,1014.41
2019-06-18T08:01:28.125Z,1014.41
2019-06-18T08:02:08.624Z,1014.37
2019-06-18T08:02:49.208Z,1014.4
2019-06-18T08:03:30.414Z,1014.35
2019-06-18T08:04:13.064Z,1014.37
2019-06-18T08:04:52.940Z,1014.34
2019-06-18T08:05:33.398Z,1014.33
2019-06-18T08:06:13.192Z,1014.36
2019-06-18T08:06:53.049Z,1014.31
2019-06-18T08:07:33.438Z,1014.37
2019-06-18T08:08:14.013Z,1014.33
2019-06-18T08:08:54.585Z,1014.35
2019-06-18T08:09:35.152Z,1014.28
2019-06-18T08:10:15.769Z,1014.26
2019-06-18T08:10:56.381Z,1014.31
2019-06-18T08:11:36.997Z,1014.26
2019-06-18T08:12:17.629Z,1014.24
2019-06-18T08:12:58.222Z,1014.3
2019-06-18T08:13:38.865Z,1014.19
2019-06-18T08:14:19.426Z,1014.21
2019-06-18T08:15:00.011Z,1014.24
2019-06-18T08:15:42.950Z,1014.22
2019-06-18T08:16:23.285Z,1014.24
2019-06-18T08:17:03.595Z,1014.28
2019-06-18T08:17:45.024Z,1014.25
2019-06-18T08:18:25.805Z,1014.17
2019-06-18T08:19:06.585Z,1014.14
2019-06-18T08:19:47.193Z,1014.22
2019-06-18T08:20:34.147Z,1014.21
2019-06-18T08:21:09.594Z,1014.18
2019-06-18T08:21:52.948Z,1014.24
2019-06-18T08:22:32.417Z,1014.2
2019-06-18T08:23:13.344Z,1014.16
2019-06-18T08:23:52.644Z,1014.14
2019-06-18T08:24:33.415Z,1014.16
2019-06-18T08:25:14.759Z,1014.15
2019-06-18T08:25:55.873Z,1014.16
2019-06-18T08:26:36.447Z,1014.12
2019-06-18T08:27:16.981Z,1014.13
2019-06-18T08:27:57.589Z,1014.12